sensor_id;sensor_type;location;lat;lon;timestamp;P1;durP1;ratioP1;P2;durP2;ratioP2
19285;SDS011;9776;50.798;6.430;2022-08-19T00:00:48;3.70;;;3.50;;
19285;SDS011;9776;50.798;6.430;2022-08-19T00:03:15;4.00;;;3.80;;
19285;SDS011;9776;50.798;6.430;2022-08-19T00:05:42;4.22;;;3.92;;
19285;SDS011;9776;50.798;6.430;2022-08-19T00:08:10;3.92;;;3.72;;
19285;SDS011;9776;50.798;6.430;2022-08-19T00:10:37;3.83;;;3.63;;
19285;SDS011;9776;50.798;6.430;2022-08-19T00:13:03;4.00;;;3.80;;
19285;SDS011;9776;50.798;6.430;2022-08-19T00:15:30;3.75;;;3.55;;
19285;SDS011;9776;50.798;6.430;2022-08-19T00:17:57;4.32;;;4.13;;
19285;SDS011;9776;50.798;6.430;2022-08-19T00:20:23;3.83;;;3.63;;
19285;SDS011;9776;50.798;6.430;2022-08-19T00:22:50;3.85;;;3.65;;
19285;SDS011;9776;50.798;6.430;2022-08-19T00:25:19;4.30;;;4.00;;
19285;SDS011;9776;50.798;6.430;2022-08-19T00:27:45;4.07;;;3.80;;
19285;SDS011;9776;50.798;6.430;2022-08-19T00:30:12;4.10;;;3.90;;
19285;SDS011;9776;50.798;6.430;2022-08-19T00:32:39;4.55;;;4.25;;
19285;SDS011;9776;50.798;6.430;2022-08-19T00:35:06;4.47;;;4.18;;
19285;SDS011;9776;50.798;6.430;2022-08-19T00:37:34;4.18;;;3.97;;
19285;SDS011;9776;50.798;6.430;2022-08-19T00:40:04;3.97;;;3.78;;
19285;SDS011;9776;50.798;6.430;2022-08-19T00:42:33;4.18;;;3.97;;
19285;SDS011;9776;50.798;6.430;2022-08-19T00:45:00;4.35;;;4.15;;
19285;SDS011;9776;50.798;6.430;2022-08-19T00:47:27;4.45;;;4.25;;
19285;SDS011;9776;50.798;6.430;2022-08-19T00:49:55;4.40;;;4.20;;
19285;SDS011;9776;50.798;6.430;2022-08-19T00:52:25;4.28;;;4.07;;
19285;SDS011;9776;50.798;6.430;2022-08-19T00:54:55;3.97;;;3.78;;
19285;SDS011;9776;50.798;6.430;2022-08-19T00:57:23;4.07;;;3.88;;
19285;SDS011;9776;50.798;6.430;2022-08-19T00:59:56;4.13;;;3.92;;
19285;SDS011;9776;50.798;6.430;2022-08-19T01:02:25;3.97;;;3.78;;
19285;SDS011;9776;50.798;6.430;2022-08-19T01:04:53;3.78;;;3.58;;
19285;SDS011;9776;50.798;6.430;2022-08-19T01:07:21;3.85;;;3.65;;
19285;SDS011;9776;50.798;6.430;2022-08-19T01:09:48;3.70;;;3.50;;
19285;SDS011;9776;50.798;6.430;2022-08-19T01:12:15;4.25;;;4.05;;
19285;SDS011;9776;50.798;6.430;2022-08-19T01:14:42;3.78;;;3.58;;
19285;SDS011;9776;50.798;6.430;2022-08-19T01:17:12;4.00;;;3.80;;
19285;SDS011;9776;50.798;6.430;2022-08-19T01:19:41;4.30;;;4.10;;
19285;SDS011;9776;50.798;6.430;2022-08-19T01:22:11;4.28;;;3.97;;
19285;SDS011;9776;50.798;6.430;2022-08-19T01:24:42;4.22;;;4.03;;
19285;SDS011;9776;50.798;6.430;2022-08-19T01:27:09;3.78;;;3.58;;
19285;SDS011;9776;50.798;6.430;2022-08-19T01:29:37;3.85;;;3.65;;
19285;SDS011;9776;50.798;6.430;2022-08-19T01:32:05;4.15;;;3.95;;
19285;SDS011;9776;50.798;6.430;2022-08-19T01:34:32;4.07;;;3.88;;
19285;SDS011;9776;50.798;6.430;2022-08-19T01:36:59;3.95;;;3.75;;
19285;SDS011;9776;50.798;6.430;2022-08-19T01:39:27;4.40;;;4.20;;
19285;SDS011;9776;50.798;6.430;2022-08-19T01:41:55;4.60;;;4.40;;
19285;SDS011;9776;50.798;6.430;2022-08-19T01:44:22;4.53;;;4.32;;
19285;SDS011;9776;50.798;6.430;2022-08-19T01:46:50;4.32;;;4.13;;
19285;SDS011;9776;50.798;6.430;2022-08-19T01:49:19;4.60;;;4.40;;
19285;SDS011;9776;50.798;6.430;2022-08-19T01:51:48;4.28;;;4.07;;
19285;SDS011;9776;50.798;6.430;2022-08-19T01:54:16;4.53;;;4.25;;
19285;SDS011;9776;50.798;6.430;2022-08-19T01:56:44;5.03;;;4.72;;
19285;SDS011;9776;50.798;6.430;2022-08-19T01:59:13;4.63;;;4.35;;
19285;SDS011;9776;50.798;6.430;2022-08-19T02:01:43;4.75;;;4.45;;
19285;SDS011;9776;50.798;6.430;2022-08-19T02:04:10;5.00;;;4.70;;
19285;SDS011;9776;50.798;6.430;2022-08-19T02:06:37;5.10;;;4.80;;
19285;SDS011;9776;50.798;6.430;2022-08-19T02:09:07;5.18;;;4.03;;
19285;SDS011;9776;50.798;6.430;2022-08-19T02:11:34;4.90;;;4.60;;
19285;SDS011;9776;50.798;6.430;2022-08-19T02:14:04;5.30;;;5.00;;
19285;SDS011;9776;50.798;6.430;2022-08-19T02:16:34;5.78;;;5.47;;
19285;SDS011;9776;50.798;6.430;2022-08-19T02:19:01;5.60;;;5.30;;
19285;SDS011;9776;50.798;6.430;2022-08-19T02:21:28;5.50;;;5.20;;
19285;SDS011;9776;50.798;6.430;2022-08-19T02:23:55;5.10;;;4.80;;
19285;SDS011;9776;50.798;6.430;2022-08-19T02:26:22;5.53;;;5.22;;
19285;SDS011;9776;50.798;6.430;2022-08-19T02:28:51;6.38;;;5.97;;
19285;SDS011;9776;50.798;6.430;2022-08-19T02:31:19;5.70;;;5.38;;
19285;SDS011;9776;50.798;6.430;2022-08-19T02:33:48;5.90;;;5.50;;
19285;SDS011;9776;50.798;6.430;2022-08-19T02:36:17;7.20;;;6.75;;
19285;SDS011;9776;50.798;6.430;2022-08-19T02:38:44;6.15;;;5.80;;
19285;SDS011;9776;50.798;6.430;2022-08-19T02:41:12;6.60;;;6.20;;
19285;SDS011;9776;50.798;6.430;2022-08-19T02:43:40;6.47;;;6.07;;
19285;SDS011;9776;50.798;6.430;2022-08-19T02:46:11;6.22;;;5.88;;
19285;SDS011;9776;50.798;6.430;2022-08-19T02:48:39;3.90;;;3.70;;
19285;SDS011;9776;50.798;6.430;2022-08-19T02:51:07;5.05;;;4.75;;
19285;SDS011;9776;50.798;6.430;2022-08-19T02:53:34;4.30;;;4.10;;
19285;SDS011;9776;50.798;6.430;2022-08-19T02:56:05;6.07;;;5.70;;
19285;SDS011;9776;50.798;6.430;2022-08-19T02:58:32;6.68;;;6.28;;
19285;SDS011;9776;50.798;6.430;2022-08-19T03:00:59;5.10;;;4.80;;
19285;SDS011;9776;50.798;6.430;2022-08-19T03:03:26;7.10;;;6.70;;
19285;SDS011;9776;50.798;6.430;2022-08-19T03:06:02;7.28;;;6.85;;
19285;SDS011;9776;50.798;6.430;2022-08-19T03:08:32;5.03;;;4.72;;
19285;SDS011;9776;50.798;6.430;2022-08-19T03:10:58;4.65;;;4.35;;
19285;SDS011;9776;50.798;6.430;2022-08-19T03:13:25;4.15;;;3.95;;
19285;SDS011;9776;50.798;6.430;2022-08-19T03:15:53;4.75;;;4.45;;
19285;SDS011;9776;50.798;6.430;2022-08-19T03:18:19;4.35;;;4.15;;
19285;SDS011;9776;50.798;6.430;2022-08-19T03:20:47;5.25;;;4.95;;
19285;SDS011;9776;50.798;6.430;2022-08-19T03:23:15;4.18;;;3.88;;
19285;SDS011;9776;50.798;6.430;2022-08-19T03:25:45;6.70;;;6.30;;
19285;SDS011;9776;50.798;6.430;2022-08-19T03:28:14;6.68;;;6.28;;
19285;SDS011;9776;50.798;6.430;2022-08-19T03:30:41;6.72;;;6.32;;
19285;SDS011;9776;50.798;6.430;2022-08-19T03:33:09;6.90;;;6.50;;
19285;SDS011;9776;50.798;6.430;2022-08-19T03:35:37;6.65;;;6.25;;
19285;SDS011;9776;50.798;6.430;2022-08-19T03:38:03;7.30;;;6.90;;
19285;SDS011;9776;50.798;6.430;2022-08-19T03:40:31;6.93;;;6.53;;
19285;SDS011;9776;50.798;6.430;2022-08-19T03:43:01;7.15;;;6.75;;
19285;SDS011;9776;50.798;6.430;2022-08-19T03:45:28;6.20;;;5.80;;
19285;SDS011;9776;50.798;6.430;2022-08-19T03:47:54;6.30;;;5.90;;
19285;SDS011;9776;50.798;6.430;2022-08-19T03:50:22;6.30;;;5.90;;
19285;SDS011;9776;50.798;6.430;2022-08-19T03:52:49;7.60;;;7.10;;
19285;SDS011;9776;50.798;6.430;2022-08-19T03:55:16;7.57;;;7.07;;
19285;SDS011;9776;50.798;6.430;2022-08-19T03:57:43;6.88;;;6.47;;
19285;SDS011;9776;50.798;6.430;2022-08-19T04:00:14;6.88;;;6.47;;
19285;SDS011;9776;50.798;6.430;2022-08-19T04:02:42;7.38;;;6.97;;
19285;SDS011;9776;50.798;6.430;2022-08-19T04:05:09;7.45;;;7.05;;
19285;SDS011;9776;50.798;6.430;2022-08-19T04:07:36;6.65;;;6.15;;
19285;SDS011;9776;50.798;6.430;2022-08-19T04:10:02;7.45;;;7.05;;
19285;SDS011;9776;50.798;6.430;2022-08-19T04:12:30;6.80;;;6.40;;
19285;SDS011;9776;50.798;6.430;2022-08-19T04:14:57;7.45;;;7.05;;
19285;SDS011;9776;50.798;6.430;2022-08-19T04:17:25;7.55;;;7.05;;
19285;SDS011;9776;50.798;6.430;2022-08-19T04:19:52;6.82;;;6.43;;
19285;SDS011;9776;50.798;6.430;2022-08-19T04:22:18;7.80;;;7.30;;
19285;SDS011;9776;50.798;6.430;2022-08-19T04:24:45;7.40;;;7.00;;
19285;SDS011;9776;50.798;6.430;2022-08-19T04:27:12;8.32;;;7.82;;
19285;SDS011;9776;50.798;6.430;2022-08-19T04:29:39;8.00;;;7.50;;
19285;SDS011;9776;50.798;6.430;2022-08-19T04:32:06;7.85;;;7.30;;
19285;SDS011;9776;50.798;6.430;2022-08-19T04:34:34;7.40;;;7.00;;
19285;SDS011;9776;50.798;6.430;2022-08-19T04:37:01;8.50;;;7.90;;
19285;SDS011;9776;50.798;6.430;2022-08-19T04:39:33;8.38;;;7.78;;
19285;SDS011;9776;50.798;6.430;2022-08-19T04:42:17;4.20;;;3.90;;
19285;SDS011;9776;50.798;6.430;2022-08-19T04:45:01;8.70;;;8.20;;
19285;SDS011;9776;50.798;6.430;2022-08-19T04:47:29;8.63;;;8.13;;
19285;SDS011;9776;50.798;6.430;2022-08-19T04:49:57;9.20;;;8.60;;
19285;SDS011;9776;50.798;6.430;2022-08-19T04:52:24;8.90;;;8.30;;
19285;SDS011;9776;50.798;6.430;2022-08-19T04:54:50;8.30;;;7.80;;
19285;SDS011;9776;50.798;6.430;2022-08-19T04:57:17;8.13;;;7.63;;
19285;SDS011;9776;50.798;6.430;2022-08-19T04:59:44;8.07;;;7.57;;
19285;SDS011;9776;50.798;6.430;2022-08-19T05:02:10;9.25;;;8.65;;
19285;SDS011;9776;50.798;6.430;2022-08-19T05:04:37;7.72;;;7.22;;
19285;SDS011;9776;50.798;6.430;2022-08-19T05:07:06;9.40;;;8.80;;
19285;SDS011;9776;50.798;6.430;2022-08-19T05:09:33;9.73;;;9.07;;
19285;SDS011;9776;50.798;6.430;2022-08-19T05:12:00;9.20;;;8.60;;
19285;SDS011;9776;50.798;6.430;2022-08-19T05:14:27;8.63;;;8.02;;
19285;SDS011;9776;50.798;6.430;2022-08-19T05:16:54;10.02;;;9.32;;
19285;SDS011;9776;50.798;6.430;2022-08-19T05:19:20;9.27;;;8.63;;
19285;SDS011;9776;50.798;6.430;2022-08-19T05:22:06;10.00;;;9.30;;
19285;SDS011;9776;50.798;6.430;2022-08-19T05:24:50;9.88;;;9.18;;
19285;SDS011;9776;50.798;6.430;2022-08-19T05:27:16;10.05;;;9.35;;
19285;SDS011;9776;50.798;6.430;2022-08-19T05:29:43;10.05;;;9.35;;
19285;SDS011;9776;50.798;6.430;2022-08-19T05:32:10;10.32;;;9.63;;
19285;SDS011;9776;50.798;6.430;2022-08-19T05:34:36;11.00;;;10.30;;
19285;SDS011;9776;50.798;6.430;2022-08-19T05:37:05;11.02;;;10.23;;
19285;SDS011;9776;50.798;6.430;2022-08-19T05:39:34;10.90;;;10.10;;
19285;SDS011;9776;50.798;6.430;2022-08-19T05:42:04;11.20;;;10.43;;
19285;SDS011;9776;50.798;6.430;2022-08-19T05:44:33;10.95;;;10.25;;
19285;SDS011;9776;50.798;6.430;2022-08-19T05:47:02;11.40;;;10.60;;
19285;SDS011;9776;50.798;6.430;2022-08-19T05:49:30;11.43;;;10.63;;
19285;SDS011;9776;50.798;6.430;2022-08-19T05:51:58;11.18;;;10.48;;
19285;SDS011;9776;50.798;6.430;2022-08-19T05:54:30;11.38;;;10.57;;
19285;SDS011;9776;50.798;6.430;2022-08-19T05:56:56;12.05;;;11.15;;
19285;SDS011;9776;50.798;6.430;2022-08-19T05:59:23;12.10;;;11.20;;
19285;SDS011;9776;50.798;6.430;2022-08-19T06:01:52;10.90;;;10.20;;
19285;SDS011;9776;50.798;6.430;2022-08-19T06:04:22;11.30;;;10.50;;
19285;SDS011;9776;50.798;6.430;2022-08-19T06:06:51;11.88;;;11.07;;
19285;SDS011;9776;50.798;6.430;2022-08-19T06:09:19;11.38;;;10.60;;
19285;SDS011;9776;50.798;6.430;2022-08-19T06:11:49;10.80;;;10.10;;
19285;SDS011;9776;50.798;6.430;2022-08-19T06:14:27;12.02;;;11.13;;
19285;SDS011;9776;50.798;6.430;2022-08-19T06:16:55;11.63;;;10.73;;
19285;SDS011;9776;50.798;6.430;2022-08-19T06:19:27;11.65;;;10.85;;
19285;SDS011;9776;50.798;6.430;2022-08-19T06:21:55;10.45;;;9.75;;
19285;SDS011;9776;50.798;6.430;2022-08-19T06:24:24;12.10;;;11.25;;
19285;SDS011;9776;50.798;6.430;2022-08-19T06:26:55;12.20;;;11.35;;
19285;SDS011;9776;50.798;6.430;2022-08-19T06:29:24;11.32;;;10.52;;
19285;SDS011;9776;50.798;6.430;2022-08-19T06:31:53;12.45;;;11.55;;
19285;SDS011;9776;50.798;6.430;2022-08-19T06:34:21;11.85;;;11.05;;
19285;SDS011;9776;50.798;6.430;2022-08-19T06:36:49;12.23;;;11.43;;
19285;SDS011;9776;50.798;6.430;2022-08-19T06:39:18;11.75;;;10.95;;
19285;SDS011;9776;50.798;6.430;2022-08-19T06:41:48;11.77;;;10.98;;
19285;SDS011;9776;50.798;6.430;2022-08-19T06:44:19;11.43;;;10.63;;
19285;SDS011;9776;50.798;6.430;2022-08-19T06:46:46;12.20;;;11.35;;
19285;SDS011;9776;50.798;6.430;2022-08-19T06:49:13;12.75;;;11.85;;
19285;SDS011;9776;50.798;6.430;2022-08-19T06:51:41;11.57;;;10.77;;
19285;SDS011;9776;50.798;6.430;2022-08-19T06:54:08;12.02;;;11.13;;
19285;SDS011;9776;50.798;6.430;2022-08-19T06:56:35;11.88;;;10.98;;
19285;SDS011;9776;50.798;6.430;2022-08-19T06:59:03;11.48;;;10.68;;
19285;SDS011;9776;50.798;6.430;2022-08-19T07:01:35;12.43;;;11.48;;
19285;SDS011;9776;50.798;6.430;2022-08-19T07:04:03;12.60;;;11.60;;
19285;SDS011;9776;50.798;6.430;2022-08-19T07:06:31;11.95;;;10.95;;
19285;SDS011;9776;50.798;6.430;2022-08-19T07:08:58;11.95;;;11.05;;
19285;SDS011;9776;50.798;6.430;2022-08-19T07:11:25;11.20;;;10.40;;
19285;SDS011;9776;50.798;6.430;2022-08-19T07:13:52;10.60;;;9.90;;
19285;SDS011;9776;50.798;6.430;2022-08-19T07:16:20;10.13;;;9.43;;
19285;SDS011;9776;50.798;6.430;2022-08-19T07:18:49;8.65;;;8.05;;
19285;SDS011;9776;50.798;6.430;2022-08-19T07:21:17;8.70;;;8.10;;
19285;SDS011;9776;50.798;6.430;2022-08-19T07:23:44;7.70;;;7.18;;
19285;SDS011;9776;50.798;6.430;2022-08-19T07:26:12;7.50;;;7.00;;
19285;SDS011;9776;50.798;6.430;2022-08-19T07:28:44;6.70;;;6.30;;
19285;SDS011;9776;50.798;6.430;2022-08-19T07:31:11;6.30;;;5.90;;
19285;SDS011;9776;50.798;6.430;2022-08-19T07:33:39;5.90;;;5.60;;
19285;SDS011;9776;50.798;6.430;2022-08-19T07:36:10;5.97;;;5.50;;
19285;SDS011;9776;50.798;6.430;2022-08-19T07:38:39;4.72;;;4.43;;
19285;SDS011;9776;50.798;6.430;2022-08-19T07:41:08;3.80;;;3.60;;
19285;SDS011;9776;50.798;6.430;2022-08-19T07:43:37;3.40;;;3.20;;
19285;SDS011;9776;50.798;6.430;2022-08-19T07:46:04;3.35;;;3.15;;
19285;SDS011;9776;50.798;6.430;2022-08-19T07:48:31;3.42;;;3.22;;
19285;SDS011;9776;50.798;6.430;2022-08-19T07:50:59;3.85;;;3.38;;
19285;SDS011;9776;50.798;6.430;2022-08-19T07:53:31;3.67;;;3.40;;
19285;SDS011;9776;50.798;6.430;2022-08-19T07:55:58;4.07;;;3.78;;
19285;SDS011;9776;50.798;6.430;2022-08-19T07:58:27;4.93;;;4.65;;
19285;SDS011;9776;50.798;6.430;2022-08-19T08:00:55;4.50;;;4.30;;
19285;SDS011;9776;50.798;6.430;2022-08-19T08:03:22;4.38;;;4.18;;
19285;SDS011;9776;50.798;6.430;2022-08-19T08:06:09;4.63;;;4.32;;
19285;SDS011;9776;50.798;6.430;2022-08-19T08:08:55;5.03;;;4.72;;
19285;SDS011;9776;50.798;6.430;2022-08-19T08:11:37;6.93;;;6.53;;
19285;SDS011;9776;50.798;6.430;2022-08-19T08:14:04;5.45;;;5.05;;
19285;SDS011;9776;50.798;6.430;2022-08-19T08:16:33;4.80;;;4.50;;
19285;SDS011;9776;50.798;6.430;2022-08-19T08:19:00;4.80;;;4.47;;
19285;SDS011;9776;50.798;6.430;2022-08-19T08:21:27;4.75;;;4.45;;
19285;SDS011;9776;50.798;6.430;2022-08-19T08:23:55;4.97;;;4.68;;
19285;SDS011;9776;50.798;6.430;2022-08-19T08:26:22;4.97;;;4.68;;
19285;SDS011;9776;50.798;6.430;2022-08-19T08:28:50;5.95;;;5.55;;
19285;SDS011;9776;50.798;6.430;2022-08-19T08:31:17;4.88;;;4.57;;
19285;SDS011;9776;50.798;6.430;2022-08-19T08:33:44;4.97;;;4.68;;
19285;SDS011;9776;50.798;6.430;2022-08-19T08:36:12;5.40;;;5.10;;
19285;SDS011;9776;50.798;6.430;2022-08-19T08:38:40;5.38;;;5.07;;
19285;SDS011;9776;50.798;6.430;2022-08-19T08:41:13;5.15;;;4.85;;
19285;SDS011;9776;50.798;6.430;2022-08-19T08:43:49;5.22;;;4.93;;
19285;SDS011;9776;50.798;6.430;2022-08-19T08:46:19;5.90;;;5.50;;
19285;SDS011;9776;50.798;6.430;2022-08-19T08:48:52;6.22;;;5.82;;
19285;SDS011;9776;50.798;6.430;2022-08-19T08:51:25;5.57;;;5.28;;
19285;SDS011;9776;50.798;6.430;2022-08-19T08:53:55;6.18;;;5.78;;
19285;SDS011;9776;50.798;6.430;2022-08-19T08:56:24;5.88;;;5.47;;
19285;SDS011;9776;50.798;6.430;2022-08-19T08:58:53;5.40;;;5.10;;
19285;SDS011;9776;50.798;6.430;2022-08-19T09:01:24;6.30;;;5.90;;
19285;SDS011;9776;50.798;6.430;2022-08-19T09:03:52;5.88;;;5.47;;
19285;SDS011;9776;50.798;6.430;2022-08-19T09:06:23;5.75;;;5.45;;
19285;SDS011;9776;50.798;6.430;2022-08-19T09:09:05;5.70;;;5.30;;
19285;SDS011;9776;50.798;6.430;2022-08-19T09:11:46;5.68;;;5.35;;
19285;SDS011;9776;50.798;6.430;2022-08-19T09:14:27;6.10;;;5.70;;
19285;SDS011;9776;50.798;6.430;2022-08-19T09:17:06;5.05;;;4.75;;
19285;SDS011;9776;50.798;6.430;2022-08-19T09:19:34;5.70;;;5.28;;
19285;SDS011;9776;50.798;6.430;2022-08-19T09:22:01;5.53;;;5.13;;
19285;SDS011;9776;50.798;6.430;2022-08-19T09:24:28;5.57;;;5.18;;
19285;SDS011;9776;50.798;6.430;2022-08-19T09:26:56;5.70;;;5.20;;
19285;SDS011;9776;50.798;6.430;2022-08-19T09:29:23;5.28;;;4.97;;
19285;SDS011;9776;50.798;6.430;2022-08-19T09:31:49;5.28;;;4.97;;
19285;SDS011;9776;50.798;6.430;2022-08-19T09:34:16;5.00;;;4.60;;
19285;SDS011;9776;50.798;6.430;2022-08-19T09:36:44;5.05;;;4.75;;
19285;SDS011;9776;50.798;6.430;2022-08-19T09:39:11;4.40;;;4.03;;
19285;SDS011;9776;50.798;6.430;2022-08-19T09:41:38;4.18;;;3.97;;
19285;SDS011;9776;50.798;6.430;2022-08-19T09:44:06;5.28;;;4.97;;
19285;SDS011;9776;50.798;6.430;2022-08-19T09:46:32;4.63;;;4.35;;
19285;SDS011;9776;50.798;6.430;2022-08-19T09:49:01;4.65;;;4.35;;
19285;SDS011;9776;50.798;6.430;2022-08-19T09:51:29;4.90;;;4.50;;
19285;SDS011;9776;50.798;6.430;2022-08-19T09:53:58;4.75;;;4.45;;
19285;SDS011;9776;50.798;6.430;2022-08-19T09:56:26;4.90;;;4.60;;
19285;SDS011;9776;50.798;6.430;2022-08-19T09:58:53;4.82;;;4.53;;
19285;SDS011;9776;50.798;6.430;2022-08-19T10:01:22;4.43;;;4.13;;
19285;SDS011;9776;50.798;6.430;2022-08-19T10:03:51;4.55;;;4.13;;
19285;SDS011;9776;50.798;6.430;2022-08-19T10:06:20;4.78;;;4.47;;
19285;SDS011;9776;50.798;6.430;2022-08-19T10:08:47;5.10;;;4.80;;
19285;SDS011;9776;50.798;6.430;2022-08-19T10:11:14;4.88;;;4.57;;
19285;SDS011;9776;50.798;6.430;2022-08-19T10:13:42;4.70;;;4.40;;
19285;SDS011;9776;50.798;6.430;2022-08-19T10:16:11;4.35;;;4.05;;
19285;SDS011;9776;50.798;6.430;2022-08-19T10:18:41;4.80;;;4.50;;
19285;SDS011;9776;50.798;6.430;2022-08-19T10:21:10;6.55;;;6.15;;
19285;SDS011;9776;50.798;6.430;2022-08-19T10:23:40;8.95;;;8.45;;
19285;SDS011;9776;50.798;6.430;2022-08-19T10:26:10;7.95;;;7.45;;
19285;SDS011;9776;50.798;6.430;2022-08-19T10:28:38;7.03;;;6.63;;
19285;SDS011;9776;50.798;6.430;2022-08-19T10:31:05;6.93;;;6.53;;
19285;SDS011;9776;50.798;6.430;2022-08-19T10:33:33;7.07;;;6.68;;
19285;SDS011;9776;50.798;6.430;2022-08-19T10:36:01;6.40;;;6.00;;
19285;SDS011;9776;50.798;6.430;2022-08-19T10:38:30;6.00;;;5.70;;
19285;SDS011;9776;50.798;6.430;2022-08-19T10:40:56;6.20;;;5.80;;
19285;SDS011;9776;50.798;6.430;2022-08-19T10:43:23;6.63;;;6.22;;
19285;SDS011;9776;50.798;6.430;2022-08-19T10:45:54;6.07;;;5.72;;
19285;SDS011;9776;50.798;6.430;2022-08-19T10:48:24;6.05;;;5.68;;
19285;SDS011;9776;50.798;6.430;2022-08-19T10:50:51;4.82;;;4.53;;
19285;SDS011;9776;50.798;6.430;2022-08-19T10:53:36;4.45;;;4.15;;
19285;SDS011;9776;50.798;6.430;2022-08-19T10:56:03;4.30;;;4.10;;
19285;SDS011;9776;50.798;6.430;2022-08-19T10:58:47;4.25;;;3.95;;
19285;SDS011;9776;50.798;6.430;2022-08-19T11:01:14;4.00;;;3.80;;
19285;SDS011;9776;50.798;6.430;2022-08-19T11:03:40;4.50;;;4.20;;
19285;SDS011;9776;50.798;6.430;2022-08-19T11:06:08;4.63;;;4.32;;
19285;SDS011;9776;50.798;6.430;2022-08-19T11:08:35;5.15;;;4.78;;
19285;SDS011;9776;50.798;6.430;2022-08-19T11:11:04;4.47;;;4.22;;
19285;SDS011;9776;50.798;6.430;2022-08-19T11:13:33;4.20;;;3.90;;
19285;SDS011;9776;50.798;6.430;2022-08-19T11:16:04;3.70;;;3.45;;
19285;SDS011;9776;50.798;6.430;2022-08-19T11:18:33;3.83;;;3.63;;
19285;SDS011;9776;50.798;6.430;2022-08-19T11:21:05;4.10;;;3.88;;
19285;SDS011;9776;50.798;6.430;2022-08-19T11:23:33;6.20;;;5.90;;
19285;SDS011;9776;50.798;6.430;2022-08-19T11:26:01;8.75;;;8.25;;
19285;SDS011;9776;50.798;6.430;2022-08-19T11:28:28;7.72;;;7.25;;
19285;SDS011;9776;50.798;6.430;2022-08-19T11:30:55;7.05;;;6.65;;
19285;SDS011;9776;50.798;6.430;2022-08-19T11:33:22;6.03;;;5.72;;
19285;SDS011;9776;50.798;6.430;2022-08-19T11:35:51;5.78;;;5.47;;
19285;SDS011;9776;50.798;6.430;2022-08-19T11:38:18;4.93;;;4.63;;
19285;SDS011;9776;50.798;6.430;2022-08-19T11:40:44;5.60;;;5.30;;
19285;SDS011;9776;50.798;6.430;2022-08-19T11:43:12;5.55;;;5.25;;
19285;SDS011;9776;50.798;6.430;2022-08-19T11:45:39;4.95;;;4.65;;
19285;SDS011;9776;50.798;6.430;2022-08-19T11:48:06;4.53;;;4.22;;
19285;SDS011;9776;50.798;6.430;2022-08-19T11:50:33;3.58;;;3.38;;
19285;SDS011;9776;50.798;6.430;2022-08-19T11:52:59;3.10;;;2.90;;
19285;SDS011;9776;50.798;6.430;2022-08-19T11:55:26;2.20;;;2.10;;
19285;SDS011;9776;50.798;6.430;2022-08-19T11:57:53;2.15;;;2.05;;
19285;SDS011;9776;50.798;6.430;2022-08-19T12:00:21;2.20;;;2.10;;
19285;SDS011;9776;50.798;6.430;2022-08-19T12:02:47;2.63;;;2.53;;
19285;SDS011;9776;50.798;6.430;2022-08-19T12:05:14;2.60;;;2.50;;
19285;SDS011;9776;50.798;6.430;2022-08-19T12:07:41;2.78;;;2.67;;
19285;SDS011;9776;50.798;6.430;2022-08-19T12:10:08;3.30;;;3.10;;
19285;SDS011;9776;50.798;6.430;2022-08-19T12:12:35;2.88;;;2.72;;
19285;SDS011;9776;50.798;6.430;2022-08-19T12:15:08;2.83;;;2.63;;
19285;SDS011;9776;50.798;6.430;2022-08-19T12:17:38;2.92;;;2.72;;
19285;SDS011;9776;50.798;6.430;2022-08-19T12:20:05;2.92;;;2.72;;
19285;SDS011;9776;50.798;6.430;2022-08-19T12:22:33;2.80;;;2.60;;
19285;SDS011;9776;50.798;6.430;2022-08-19T12:25:01;2.75;;;2.65;;
19285;SDS011;9776;50.798;6.430;2022-08-19T12:27:27;3.60;;;3.40;;
19285;SDS011;9776;50.798;6.430;2022-08-19T12:29:54;3.85;;;3.65;;
19285;SDS011;9776;50.798;6.430;2022-08-19T12:32:21;5.10;;;4.80;;
19285;SDS011;9776;50.798;6.430;2022-08-19T12:34:49;4.93;;;4.63;;
19285;SDS011;9776;50.798;6.430;2022-08-19T12:37:15;4.22;;;3.92;;
19285;SDS011;9776;50.798;6.430;2022-08-19T12:39:43;4.68;;;4.28;;
19285;SDS011;9776;50.798;6.430;2022-08-19T12:42:10;3.95;;;3.67;;
19285;SDS011;9776;50.798;6.430;2022-08-19T12:44:40;4.10;;;3.80;;
19285;SDS011;9776;50.798;6.430;2022-08-19T12:47:09;3.50;;;3.30;;
19285;SDS011;9776;50.798;6.430;2022-08-19T12:49:37;2.50;;;2.40;;
19285;SDS011;9776;50.798;6.430;2022-08-19T12:52:06;2.60;;;2.50;;
19285;SDS011;9776;50.798;6.430;2022-08-19T12:54:34;2.80;;;2.60;;
19285;SDS011;9776;50.798;6.430;2022-08-19T12:57:04;3.00;;;2.80;;
19285;SDS011;9776;50.798;6.430;2022-08-19T12:59:32;3.40;;;3.20;;
19285;SDS011;9776;50.798;6.430;2022-08-19T13:01:59;3.28;;;3.08;;
19285;SDS011;9776;50.798;6.430;2022-08-19T13:04:26;3.72;;;3.53;;
19285;SDS011;9776;50.798;6.430;2022-08-19T13:06:53;3.45;;;3.25;;
19285;SDS011;9776;50.798;6.430;2022-08-19T13:09:21;2.70;;;2.60;;
19285;SDS011;9776;50.798;6.430;2022-08-19T13:11:48;3.80;;;3.60;;
19285;SDS011;9776;50.798;6.430;2022-08-19T13:14:14;2.90;;;2.70;;
19285;SDS011;9776;50.798;6.430;2022-08-19T13:16:41;2.40;;;2.30;;
19285;SDS011;9776;50.798;6.430;2022-08-19T13:19:08;2.05;;;1.95;;
19285;SDS011;9776;50.798;6.430;2022-08-19T13:21:35;2.13;;;1.92;;
19285;SDS011;9776;50.798;6.430;2022-08-19T13:24:02;2.30;;;2.20;;
19285;SDS011;9776;50.798;6.430;2022-08-19T13:26:31;2.03;;;1.92;;
19285;SDS011;9776;50.798;6.430;2022-08-19T13:28:58;1.95;;;1.85;;
19285;SDS011;9776;50.798;6.430;2022-08-19T13:31:41;1.98;;;1.88;;
19285;SDS011;9776;50.798;6.430;2022-08-19T13:34:28;2.00;;;1.90;;
19285;SDS011;9776;50.798;6.430;2022-08-19T13:36:58;2.22;;;1.60;;
19285;SDS011;9776;50.798;6.430;2022-08-19T13:39:27;1.90;;;1.80;;
19285;SDS011;9776;50.798;6.430;2022-08-19T13:41:56;2.08;;;1.98;;
19285;SDS011;9776;50.798;6.430;2022-08-19T13:44:24;2.20;;;2.10;;
19285;SDS011;9776;50.798;6.430;2022-08-19T13:46:51;2.05;;;1.95;;
19285;SDS011;9776;50.798;6.430;2022-08-19T13:49:18;2.60;;;2.40;;
19285;SDS011;9776;50.798;6.430;2022-08-19T13:51:45;2.05;;;1.95;;
19285;SDS011;9776;50.798;6.430;2022-08-19T13:54:12;2.22;;;2.10;;
19285;SDS011;9776;50.798;6.430;2022-08-19T13:56:43;2.22;;;2.13;;
19285;SDS011;9776;50.798;6.430;2022-08-19T13:59:12;2.42;;;2.33;;
19285;SDS011;9776;50.798;6.430;2022-08-19T14:01:39;2.05;;;1.95;;
19285;SDS011;9776;50.798;6.430;2022-08-19T14:04:07;2.00;;;1.90;;
19285;SDS011;9776;50.798;6.430;2022-08-19T14:06:34;2.30;;;2.10;;
19285;SDS011;9776;50.798;6.430;2022-08-19T14:09:01;1.85;;;1.73;;
19285;SDS011;9776;50.798;6.430;2022-08-19T14:11:28;1.98;;;1.88;;
19285;SDS011;9776;50.798;6.430;2022-08-19T14:13:55;1.90;;;1.80;;
19285;SDS011;9776;50.798;6.430;2022-08-19T14:16:23;1.90;;;1.80;;
19285;SDS011;9776;50.798;6.430;2022-08-19T14:18:49;1.80;;;1.70;;
19285;SDS011;9776;50.798;6.430;2022-08-19T14:21:20;1.80;;;1.70;;
19285;SDS011;9776;50.798;6.430;2022-08-19T14:23:50;1.90;;;1.80;;
19285;SDS011;9776;50.798;6.430;2022-08-19T14:26:18;1.80;;;1.70;;
19285;SDS011;9776;50.798;6.430;2022-08-19T14:28:45;2.08;;;1.98;;
19285;SDS011;9776;50.798;6.430;2022-08-19T14:31:13;1.75;;;1.65;;
19285;SDS011;9776;50.798;6.430;2022-08-19T14:33:45;1.73;;;1.67;;
19285;SDS011;9776;50.798;6.430;2022-08-19T14:36:12;2.00;;;1.90;;
19285;SDS011;9776;50.798;6.430;2022-08-19T14:38:39;1.88;;;1.77;;
19285;SDS011;9776;50.798;6.430;2022-08-19T14:41:07;2.10;;;2.00;;
19285;SDS011;9776;50.798;6.430;2022-08-19T14:43:41;2.13;;;2.03;;
19285;SDS011;9776;50.798;6.430;2022-08-19T14:46:10;1.90;;;1.80;;
19285;SDS011;9776;50.798;6.430;2022-08-19T14:48:38;1.77;;;1.67;;
19285;SDS011;9776;50.798;6.430;2022-08-19T14:51:06;1.88;;;1.77;;
19285;SDS011;9776;50.798;6.430;2022-08-19T14:53:33;2.13;;;2.03;;
19285;SDS011;9776;50.798;6.430;2022-08-19T14:56:00;1.95;;;1.85;;
19285;SDS011;9776;50.798;6.430;2022-08-19T14:58:27;1.95;;;1.85;;
19285;SDS011;9776;50.798;6.430;2022-08-19T15:00:54;2.10;;;2.00;;
19285;SDS011;9776;50.798;6.430;2022-08-19T15:03:21;2.05;;;1.95;;
19285;SDS011;9776;50.798;6.430;2022-08-19T15:05:47;2.05;;;1.95;;